Time;durP1;ratioP1;P1;durP2;ratioP2;P2;SDS_P1;SDS_P2;PMS_P1;PMS_P2;Temp;Humidity;BMP_temperature;BMP_pressure;BME280_temperature;BME280_humidity;BME280_pressure;Samples;Min_cycle;Max_cycle;Signal;HPM_P1;HPM_P2
2023/05/30 00:01:26;;;;;;;4.85;2.40;;;14.10;99.90;;;;;;5115738;28;20168;-55
2023/05/30 00:03:52;;;;;;;8.05;2.50;;;14.10;99.90;;;;;;5115580;28;20683;-56
2023/05/30 00:06:18;;;;;;;9.23;2.58;;;14.10;99.90;;;;;;5115360;28;20547;-56
2023/05/30 00:08:43;;;;;;;9.77;2.78;;;14.10;99.90;;;;;;5115196;28;20273;-55
2023/05/30 00:11:13;;;;;;;11.35;2.97;;;13.60;99.90;;;;;;5115625;28;20192;-56
2023/05/30 00:13:42;;;;;;;7.15;2.05;;;13.80;99.90;;;;;;5115788;28;20173;-55
2023/05/30 00:16:08;;;;;;;7.45;2.40;;;14.30;99.90;;;;;;5115775;28;20168;-56
2023/05/30 00:18:37;;;;;;;8.70;2.42;;;13.80;99.90;;;;;;5115004;28;20168;-55
2023/05/30 00:21:05;;;;;;;6.78;2.47;;;14.00;99.90;;;;;;5096728;28;20169;-55
2023/05/30 00:23:31;;;;;;;8.20;2.92;;;14.00;99.90;;;;;;5114921;28;20647;-54
2023/05/30 00:25:57;;;;;;;11.18;3.08;;;13.80;99.90;;;;;;5114957;28;20156;-54
2023/05/30 00:28:23;;;;;;;12.88;2.70;;;14.00;99.90;;;;;;5114779;28;20668;-56
2023/05/30 00:30:49;;;;;;;13.45;2.42;;;13.70;99.90;;;;;;5114707;28;20655;-56
2023/05/30 00:33:15;;;;;;;7.40;2.72;;;13.90;99.90;;;;;;5114784;28;20165;-52
2023/05/30 00:35:41;;;;;;;9.77;3.03;;;13.80;99.90;;;;;;5115085;28;20171;-56
2023/05/30 00:38:06;;;;;;;15.05;3.42;;;13.60;99.90;;;;;;5114612;28;20207;-56
2023/05/30 00:40:32;;;;;;;9.95;2.97;;;13.60;99.90;;;;;;5114630;28;20214;-54
2023/05/30 00:42:57;;;;;;;6.13;2.08;;;13.50;99.90;;;;;;5114603;28;20177;-55
2023/05/30 00:45:23;;;;;;;7.40;2.00;;;13.30;99.90;;;;;;5114565;28;20589;-55
2023/05/30 00:47:51;;;;;;;5.90;2.08;;;13.30;99.90;;;;;;5114505;28;20208;-56
2023/05/30 00:50:18;;;;;;;8.23;2.30;;;13.40;99.90;;;;;;5114719;28;20244;-55
2023/05/30 00:52:46;;;;;;;9.85;2.25;;;13.40;99.90;;;;;;5096306;28;20196;-55
2023/05/30 00:55:12;;;;;;;6.82;2.28;;;;;;;;;;5114505;28;20171;-54
2023/05/30 00:57:39;;;;;;;7.03;2.42;;;13.40;99.90;;;;;;5114913;28;20169;-56
2023/05/30 01:00:06;;;;;;;8.05;2.40;;;13.30;99.90;;;;;;5114279;28;20196;-56
2023/05/30 01:02:35;;;;;;;8.40;2.58;;;13.00;99.90;;;;;;5114532;28;20164;-56
2023/05/30 01:05:01;;;;;;;5.85;2.22;;;13.10;99.90;;;;;;5114194;28;20192;-56
2023/05/30 01:07:27;;;;;;;9.27;2.72;;;13.20;99.90;;;;;;5114140;28;20256;-55
2023/05/30 01:09:54;;;;;;;9.13;2.78;;;13.10;99.90;;;;;;5096007;28;20161;-56
2023/05/30 01:12:41;;;;;;;13.35;3.13;;;12.80;99.90;;;;;;5114132;28;20157;-55
2023/05/30 01:15:17;;;;;;;10.82;2.80;;;13.00;99.90;;;;;;5114819;28;20169;-55
2023/05/30 01:18:04;;;;;;;9.55;2.58;;;13.00;99.90;;;;;;5113988;28;20635;-56
2023/05/30 01:20:35;;;;;;;7.85;2.40;;;13.00;99.90;;;;;;5114181;28;20176;-56
2023/05/30 01:23:13;;;;;;;7.32;2.17;;;;;;;;;;5113829;28;20520;-55
2023/05/30 01:26:17;;;;;;;13.73;2.50;;;12.90;99.90;;;;;;5114128;28;20648;-56
2023/05/30 01:28:46;;;;;;;5.50;2.10;;;12.80;99.90;;;;;;5113684;28;20200;-55
2023/05/30 01:31:12;;;;;;;10.77;2.53;;;13.10;99.90;;;;;;5113597;28;20646;-56
2023/05/30 01:33:39;;;;;;;7.47;2.45;;;12.80;99.90;;;;;;5114083;28;20175;-56
2023/05/30 01:36:05;;;;;;;6.60;3.10;;;12.90;99.90;;;;;;5113464;28;20176;-56
2023/05/30 01:38:30;;;;;;;10.27;2.45;;;12.80;99.90;;;;;;5113552;28;20160;-56
2023/05/30 01:40:59;;;;;;;10.85;2.58;;;12.50;99.90;;;;;;5113387;28;20165;-56
2023/05/30 01:43:43;;;;;;;13.60;2.35;;;12.60;99.90;;;;;;5113604;28;20499;-56
2023/05/30 01:46:24;;;;;;;7.28;2.47;;;12.60;99.90;;;;;;5113730;28;20255;-56
2023/05/30 01:49:19;;;;;;;7.60;1.98;;;12.70;99.90;;;;;;5113209;28;20247;-55
2023/05/30 01:51:49;;;;;;;8.32;2.38;;;12.40;99.90;;;;;;5099575;28;20176;-56
2023/05/30 01:54:17;;;;;;;5.47;2.35;;;12.40;99.90;;;;;;5113187;28;20172;-56
2023/05/30 01:56:46;;;;;;;5.70;2.10;;;12.70;99.90;;;;;;5113382;28;20192;-56
2023/05/30 01:59:14;;;;;;;6.05;2.38;;;12.70;99.90;;;;;;5113032;28;20169;-55
2023/05/30 02:01:41;;;;;;;10.38;2.97;;;12.50;99.90;;;;;;5113434;28;20597;-56
2023/05/30 02:04:06;;;;;;;15.75;3.03;;;12.50;99.90;;;;;;5113431;28;20161;-55
2023/05/30 02:06:32;;;;;;;10.32;2.65;;;12.90;99.90;;;;;;5112831;28;20279;-55
2023/05/30 02:08:58;;;;;;;9.13;2.72;;;12.70;99.90;;;;;;5112911;28;20196;-55
2023/05/30 02:11:23;;;;;;;12.30;2.70;;;12.30;99.90;;;;;;5112888;28;20567;-55
2023/05/30 02:13:50;;;;;;;9.48;2.80;;;;;;;;;;5112634;28;20256;-56
2023/05/30 02:16:18;;;;;;;7.88;2.85;;;12.30;99.90;;;;;;5112884;28;20164;-56
2023/05/30 02:18:44;;;;;;;11.25;3.03;;;12.30;99.90;;;;;;5113003;28;20172;-54
2023/05/30 02:21:10;;;;;;;11.82;2.35;;;12.20;99.90;;;;;;5113050;28;20168;-55
2023/05/30 02:23:36;;;;;;;6.45;2.13;;;12.20;99.90;;;;;;5094751;28;20616;-56
2023/05/30 02:26:02;;;;;;;8.52;2.55;;;12.30;99.90;;;;;;5112506;28;20210;-56
2023/05/30 02:28:27;;;;;;;9.30;2.28;;;11.90;99.90;;;;;;5112417;28;20212;-56
2023/05/30 02:30:53;;;;;;;12.65;2.28;;;11.90;99.90;;;;;;5112545;28;20168;-56
2023/05/30 02:33:19;;;;;;;12.45;2.72;;;;;;;;;;5112471;28;20172;-56
2023/05/30 02:35:44;;;;;;;5.80;2.22;;;11.80;99.90;;;;;;5112486;28;20175;-56
2023/05/30 02:38:10;;;;;;;11.10;2.28;;;11.90;99.90;;;;;;5112924;28;20165;-56
2023/05/30 02:40:36;;;;;;;13.63;2.92;;;11.70;99.90;;;;;;5112782;28;20247;-56
2023/05/30 02:43:02;;;;;;;13.38;2.42;;;11.60;99.90;;;;;;5112661;28;20180;-56
2023/05/30 02:45:27;;;;;;;10.05;2.85;;;11.80;99.90;;;;;;5112307;28;20226;-56
2023/05/30 02:47:53;;;;;;;9.77;2.40;;;;;;;;;;5093812;28;20204;-56
2023/05/30 02:50:19;;;;;;;10.25;2.55;;;11.80;99.90;;;;;;5112102;28;20163;-56
2023/05/30 02:52:44;;;;;;;10.55;2.42;;;11.70;99.90;;;;;;5112427;28;20665;-56
2023/05/30 02:55:12;;;;;;;8.00;2.65;;;11.60;99.90;;;;;;5112647;28;20191;-54
2023/05/30 02:57:38;;;;;;;6.57;2.20;;;11.70;99.90;;;;;;5112794;28;20168;-56
2023/05/30 03:00:05;;;;;;;13.32;2.70;;;11.70;99.90;;;;;;5112043;28;20674;-56
2023/05/30 03:02:31;;;;;;;8.18;2.58;;;11.70;99.90;;;;;;5111989;28;20763;-56
2023/05/30 03:04:57;;;;;;;10.10;2.47;;;11.50;99.90;;;;;;5112269;28;20200;-56
2023/05/30 03:07:23;;;;;;;9.55;2.85;;;11.50;99.90;;;;;;5111730;28;20228;-55
2023/05/30 03:09:49;;;;;;;12.73;3.15;;;;;;;;;;5111965;28;20176;-54
2023/05/30 03:12:14;;;;;;;9.55;2.60;;;11.30;99.90;;;;;;5111680;28;20168;-56
2023/05/30 03:14:40;;;;;;;8.70;2.63;;;11.30;99.90;;;;;;5112310;28;20168;-56
2023/05/30 03:17:06;;;;;;;6.03;2.45;;;11.30;99.90;;;;;;5112333;28;20280;-56
2023/05/30 03:19:32;;;;;;;9.93;2.40;;;11.30;99.90;;;;;;5112189;28;20179;-56
2023/05/30 03:21:57;;;;;;;12.85;3.33;;;11.40;99.90;;;;;;5112087;28;20161;-56
2023/05/30 03:24:23;;;;;;;10.85;2.88;;;11.50;99.90;;;;;;5114669;28;20169;-56
2023/05/30 03:26:49;;;;;;;15.15;2.90;;;11.50;99.90;;;;;;5097747;28;20160;-53
2023/05/30 03:29:15;;;;;;;12.18;2.88;;;11.90;99.90;;;;;;5115911;28;20229;-56
2023/05/30 03:31:41;;;;;;;11.52;3.00;;;;;;;;;;5116006;28;20176;-54
2023/05/30 03:34:07;;;;;;;10.30;3.63;;;11.60;99.90;;;;;;5116124;28;20540;-56
2023/05/30 03:36:32;;;;;;;10.88;2.90;;;11.70;99.90;;;;;;5115818;28;20157;-57
2023/05/30 03:38:58;;;;;;;9.65;2.97;;;11.60;99.90;;;;;;5115815;28;20211;-57
2023/05/30 03:41:23;;;;;;;6.97;2.42;;;11.60;99.90;;;;;;5115836;28;20172;-55
2023/05/30 03:43:49;;;;;;;8.43;2.72;;;11.60;99.90;;;;;;5115395;28;20603;-57
2023/05/30 03:46:16;;;;;;;8.55;2.60;;;11.60;99.90;;;;;;5115767;28;20256;-58
2023/05/30 03:48:45;;;;;;;6.10;1.98;;;11.80;99.90;;;;;;5115783;28;20583;-57
2023/05/30 03:51:12;;;;;;;9.13;2.45;;;11.60;99.90;;;;;;5115632;28;20547;-53
2023/05/30 03:53:37;;;;;;;8.57;2.42;;;11.70;99.90;;;;;;5116177;28;20199;-57
2023/05/30 03:56:03;;;;;;;11.13;2.80;;;11.80;99.90;;;;;;5115537;28;20617;-57
2023/05/30 03:58:29;;;;;;;11.05;2.85;;;12.00;99.90;;;;;;5115415;28;20174;-56
2023/05/30 04:00:55;;;;;;;8.65;2.67;;;;;;;;;;5115345;28;20165;-55
2023/05/30 04:03:20;;;;;;;14.68;2.45;;;11.80;99.90;;;;;;5115417;28;20192;-57
2023/05/30 04:05:47;;;;;;;12.93;2.63;;;11.90;99.90;;;;;;5115598;28;20179;-56
2023/05/30 04:08:13;;;;;;;8.88;2.50;;;11.80;99.90;;;;;;5115001;28;20224;-57
2023/05/30 04:10:39;;;;;;;13.38;2.97;;;11.80;99.90;;;;;;5115868;28;20172;-57
2023/05/30 04:13:05;;;;;;;13.55;2.83;;;11.60;99.90;;;;;;5096925;28;20172;-57
2023/05/30 04:15:31;;;;;;;9.23;2.38;;;11.90;99.90;;;;;;5115131;28;20165;-56
2023/05/30 04:17:57;;;;;;;7.47;2.47;;;11.80;99.90;;;;;;5115046;28;20203;-57
2023/05/30 04:20:23;;;;;;;7.70;3.15;;;12.30;99.90;;;;;;5115083;28;20181;-57
2023/05/30 04:22:49;;;;;;;9.77;2.72;;;12.00;99.90;;;;;;5114996;28;20642;-57
2023/05/30 04:25:16;;;;;;;14.48;3.30;;;11.80;99.90;;;;;;5115013;28;20173;-57
2023/05/30 04:27:43;;;;;;;11.15;2.58;;;12.00;99.90;;;;;;5114996;28;20212;-57
2023/05/30 04:30:09;;;;;;;10.07;2.72;;;;;;;;;;5115501;28;20203;-56
2023/05/30 04:32:35;;;;;;;9.50;2.88;;;12.30;99.90;;;;;;5115206;28;20204;-57
2023/05/30 04:35:03;;;;;;;9.10;2.90;;;12.00;99.90;;;;;;5114129;28;20184;-56
2023/05/30 04:37:28;;;;;;;9.75;3.22;;;12.40;99.90;;;;;;5114691;28;20161;-57
2023/05/30 04:39:57;;;;;;;7.47;2.78;;;12.30;99.90;;;;;;5114913;28;20532;-57
2023/05/30 04:42:27;;;;;;;9.38;2.47;;;;;;;;;;5114744;28;20252;-55
2023/05/30 04:44:54;;;;;;;13.48;3.22;;;12.60;99.90;;;;;;5114833;28;20176;-57
2023/05/30 04:47:23;;;;;;;10.30;3.17;;;;;;;;;;5114777;28;20204;-57
2023/05/30 04:49:53;;;;;;;10.10;3.38;;;12.70;99.90;;;;;;5114758;28;20169;-52
2023/05/30 04:52:19;;;;;;;14.73;3.40;;;;;;;;;;5114494;28;20259;-53
2023/05/30 04:54:45;;;;;;;11.43;3.38;;;12.90;99.90;;;;;;5114385;28;20169;-52
2023/05/30 04:57:12;;;;;;;14.77;3.90;;;12.80;99.90;;;;;;5114368;28;20171;-52
2023/05/30 04:59:38;;;;;;;13.82;3.58;;;12.80;99.90;;;;;;5114808;28;20195;-52
2023/05/30 05:02:04;;;;;;;9.02;3.17;;;12.80;99.90;;;;;;5114325;28;20177;-52
2023/05/30 05:04:29;;;;;;;9.30;3.28;;;12.80;99.90;;;;;;5114218;28;20187;-52
2023/05/30 05:06:56;;;;;;;11.90;3.70;;;12.80;99.90;;;;;;5113732;28;20575;-52
2023/05/30 05:09:24;;;;;;;14.65;3.90;;;12.80;99.90;;;;;;5114130;28;20181;-52
2023/05/30 05:11:50;;;;;;;13.55;3.75;;;12.90;99.90;;;;;;5113889;28;20241;-52
2023/05/30 05:14:15;;;;;;;15.55;4.35;;;13.00;99.90;;;;;;5114028;28;20252;-51
2023/05/30 05:16:41;;;;;;;11.93;3.42;;;12.80;99.90;;;;;;5095694;28;20319;-52
2023/05/30 05:19:06;;;;;;;11.00;4.07;;;13.00;99.90;;;;;;5114464;28;20183;-53
2023/05/30 05:21:32;;;;;;;11.55;4.05;;;;;;;;;;5113834;28;20217;-53
2023/05/30 05:23:58;;;;;;;14.13;5.03;;;12.90;99.90;;;;;;5095495;28;20271;-53
2023/05/30 05:26:24;;;;;;;16.55;4.43;;;12.80;99.90;;;;;;5113738;28;20164;-53
2023/05/30 05:28:50;;;;;;;15.02;4.50;;;13.00;99.90;;;;;;5095541;28;20699;-53
2023/05/30 05:31:16;;;;;;;9.70;4.30;;;12.80;99.90;;;;;;5113880;28;20168;-52
2023/05/30 05:33:42;;;;;;;15.00;4.22;;;12.90;99.90;;;;;;5113644;28;20204;-53
2023/05/30 05:36:08;;;;;;;15.38;4.50;;;;;;;;;;5113978;28;20242;-53
2023/05/30 05:38:34;;;;;;;12.25;4.20;;;12.80;99.90;;;;;;5113806;28;20169;-52
2023/05/30 05:41:00;;;;;;;8.98;3.75;;;12.80;99.90;;;;;;5113295;28;20172;-52
2023/05/30 05:43:25;;;;;;;17.35;4.65;;;12.90;99.90;;;;;;5113380;28;20248;-52
2023/05/30 05:45:51;;;;;;;13.02;4.03;;;12.80;99.90;;;;;;5113429;28;20252;-52
2023/05/30 05:48:17;;;;;;;15.50;4.70;;;12.90;99.90;;;;;;5112446;28;20204;-53
2023/05/30 05:50:43;;;;;;;11.75;5.20;;;13.00;99.90;;;;;;5113334;28;20169;-53
2023/05/30 05:53:08;;;;;;;14.57;5.15;;;13.00;99.90;;;;;;5113585;28;20168;-53
2023/05/30 05:55:34;;;;;;;15.60;5.95;;;13.30;99.90;;;;;;5113236;28;20164;-53
2023/05/30 05:57:59;;;;;;;10.45;5.05;;;12.60;99.90;;;;;;5113304;28;20178;-53
2023/05/30 06:00:25;;;;;;;11.10;4.88;;;13.00;99.90;;;;;;5113273;28;20188;-54
2023/05/30 06:02:51;;;;;;;17.85;6.40;;;13.00;99.90;;;;;;5113125;28;20165;-56
2023/05/30 06:05:16;;;;;;;15.85;5.38;;;13.00;99.90;;;;;;5113274;28;20222;-56
2023/05/30 06:07:42;;;;;;;18.45;5.43;;;13.30;99.90;;;;;;5112701;28;20257;-55
2023/05/30 06:10:08;;;;;;;15.80;6.05;;;13.10;99.90;;;;;;5113338;28;20187;-55
2023/05/30 06:12:34;;;;;;;18.45;6.68;;;13.20;99.90;;;;;;5112731;28;20173;-56
2023/05/30 06:14:59;;;;;;;14.93;6.40;;;13.30;99.90;;;;;;5113138;28;20179;-55
2023/05/30 06:17:25;;;;;;;15.05;6.85;;;;;;;;;;5112742;28;20534;-53
2023/05/30 06:19:51;;;;;;;20.75;5.88;;;13.50;99.90;;;;;;5112717;28;20561;-53
2023/05/30 06:22:17;;;;;;;14.13;6.18;;;13.30;99.90;;;;;;5112667;28;20501;-53
2023/05/30 06:24:42;;;;;;;11.63;5.72;;;13.40;99.90;;;;;;5094338;28;20165;-53
2023/05/30 06:27:08;;;;;;;15.65;5.28;;;13.50;99.90;;;;;;5112940;28;20249;-52
2023/05/30 06:29:35;;;;;;;16.08;6.43;;;13.30;99.90;;;;;;5112535;28;20531;-53
2023/05/30 06:32:01;;;;;;;18.20;6.85;;;13.80;99.90;;;;;;5112746;28;20164;-53
2023/05/30 06:34:26;;;;;;;13.25;6.30;;;14.10;99.90;;;;;;5112416;28;20165;-54
2023/05/30 06:36:52;;;;;;;16.15;6.47;;;14.20;99.90;;;;;;5112506;28;20534;-52
2023/05/30 06:39:17;;;;;;;24.15;6.80;;;14.20;99.90;;;;;;5112423;28;20260;-52
2023/05/30 06:41:43;;;;;;;13.35;5.15;;;13.60;99.90;;;;;;5112772;28;20171;-52
2023/05/30 06:44:09;;;;;;;12.30;6.70;;;;;;;;;;5112279;28;20635;-53
2023/05/30 06:46:35;;;;;;;13.18;6.00;;;14.00;99.90;;;;;;5112560;28;20175;-52
2023/05/30 06:49:01;;;;;;;14.77;6.50;;;13.60;99.90;;;;;;5112103;28;20663;-52
2023/05/30 06:51:26;;;;;;;16.27;6.82;;;13.80;99.90;;;;;;5112219;28;20186;-53
2023/05/30 06:53:52;;;;;;;13.18;6.45;;;14.30;99.90;;;;;;5112148;28;20171;-53
2023/05/30 06:56:18;;;;;;;19.50;6.85;;;13.80;99.90;;;;;;5112093;28;20169;-52
2023/05/30 06:58:43;;;;;;;14.85;6.40;;;14.00;99.90;;;;;;5111718;28;20532;-52
2023/05/30 07:01:10;;;;;;;12.45;6.10;;;;;;;;;;5109781;28;20184;-51
2023/05/30 07:03:36;;;;;;;18.27;8.43;;;;;;;;;;5110564;28;20172;-51
2023/05/30 07:06:02;;;;;;;16.40;7.38;;;14.50;99.90;;;;;;5110071;28;20165;-53
2023/05/30 07:08:30;;;;;;;12.70;7.57;;;;;;;;;;5110383;28;20311;-51
2023/05/30 07:10:56;;;;;;;20.67;7.35;;;14.80;99.90;;;;;;5110267;28;20200;-51
2023/05/30 07:13:22;;;;;;;16.92;8.05;;;;;;;;;;5110371;28;20258;-51
2023/05/30 07:15:48;;;;;;;16.88;7.72;;;;;;;;;;5109442;28;20173;-51
2023/05/30 07:18:14;;;;;;;19.02;8.13;;;;;;;;;;5109562;28;20172;-52
2023/05/30 07:20:39;;;;;;;16.17;8.10;;;15.10;99.90;;;;;;5110088;28;20256;-51
2023/05/30 07:23:05;;;;;;;15.82;7.60;;;15.30;99.90;;;;;;5110450;28;20165;-52
2023/05/30 07:25:31;;;;;;;15.60;7.32;;;;;;;;;;5110019;28;20179;-51
2023/05/30 07:27:57;;;;;;;14.38;8.40;;;;;;;;;;5109810;28;20664;-52
2023/05/30 07:30:22;;;;;;;15.02;7.80;;;14.90;99.90;;;;;;5110026;28;20256;-51
2023/05/30 07:32:49;;;;;;;16.73;7.75;;;;;;;;;;5109991;28;20164;-51
2023/05/30 07:35:15;;;;;;;13.77;7.65;;;15.20;99.90;;;;;;5109792;28;20263;-51
2023/05/30 07:37:40;;;;;;;15.80;7.72;;;15.40;99.90;;;;;;5110080;28;20251;-51
2023/05/30 07:40:07;;;;;;;12.18;7.55;;;15.60;99.90;;;;;;5110466;28;20529;-51
2023/05/30 07:42:33;;;;;;;13.65;6.93;;;15.40;99.90;;;;;;5108998;28;20173;-51
2023/05/30 07:44:59;;;;;;;17.60;7.88;;;15.90;99.90;;;;;;5091468;28;20184;-53
2023/05/30 07:47:25;;;;;;;14.98;6.88;;;15.70;99.90;;;;;;5110035;28;20551;-53
2023/05/30 07:49:51;;;;;;;12.82;7.00;;;;;;;;;;5109665;28;20188;-53
2023/05/30 07:52:16;;;;;;;13.25;7.22;;;16.00;99.90;;;;;;5109755;28;20540;-53
2023/05/30 07:54:42;;;;;;;13.50;6.38;;;;;;;;;;5109783;28;20192;-53
2023/05/30 07:57:12;;;;;;;15.30;6.60;;;;;;;;;;5110117;28;20251;-53
2023/05/30 07:59:38;;;;;;;15.20;7.32;;;;;;;;;;5110193;28;20165;-53
2023/05/30 08:02:04;;;;;;;16.60;7.78;;;16.20;99.90;;;;;;5109874;28;20248;-53
2023/05/30 08:04:29;;;;;;;17.00;6.60;;;16.30;99.90;;;;;;5109883;28;20234;-52
2023/05/30 08:06:55;;;;;;;12.68;6.13;;;16.50;99.90;;;;;;5109676;28;20239;-53
2023/05/30 08:09:21;;;;;;;14.57;6.55;;;16.60;99.90;;;;;;5091344;28;20168;-53
2023/05/30 08:11:47;;;;;;;14.25;6.07;;;;;;;;;;5112762;28;20181;-53
2023/05/30 08:14:13;;;;;;;12.90;6.28;;;;;;;;;;5113430;28;20177;-53
2023/05/30 08:16:39;;;;;;;16.02;6.25;;;;;;;;;;5113705;28;20204;-53
2023/05/30 08:19:05;;;;;;;12.45;5.95;;;;;;;;;;5113931;28;20519;-53
2023/05/30 08:21:31;;;;;;;11.50;5.72;;;;;;;;;;5113111;28;20165;-54
2023/05/30 08:23:57;;;;;;;10.27;4.82;;;16.30;99.90;;;;;;5113346;28;20163;-53
2023/05/30 08:26:24;;;;;;;14.63;5.30;;;16.20;99.90;;;;;;5113220;28;20165;-52
2023/05/30 08:28:51;;;;;;;10.52;5.70;;;16.00;99.90;;;;;;5113306;28;20603;-53
2023/05/30 08:31:18;;;;;;;13.02;5.20;;;;;;;;;;5113184;28;20592;-52
2023/05/30 08:33:45;;;;;;;9.32;5.25;;;;;;;;;;5113042;28;20160;-53
2023/05/30 08:36:11;;;;;;;13.50;5.78;;;;;;;;;;5113108;28;20165;-53
2023/05/30 08:38:37;;;;;;;6.60;5.15;;;;;;;;;;5113207;28;20225;-53
2023/05/30 08:41:02;;;;;;;10.00;5.45;;;16.90;99.90;;;;;;5112614;28;20499;-53
2023/05/30 08:43:28;;;;;;;17.63;5.25;;;17.10;99.90;;;;;;5112876;28;20614;-53
2023/05/30 08:45:55;;;;;;;14.95;4.88;;;16.90;99.90;;;;;;5112809;28;20616;-53
2023/05/30 08:48:23;;;;;;;9.45;5.20;;;16.90;99.90;;;;;;5112566;28;20200;-53
2023/05/30 08:50:49;;;;;;;9.68;4.85;;;;;;;;;;5112659;28;20163;-53
2023/05/30 08:53:24;;;;;;;10.98;4.53;;;17.10;99.90;;;;;;5112471;28;20169;-53
2023/05/30 08:56:10;;;;;;;11.57;4.88;;;17.40;99.90;;;;;;5112543;28;20204;-53
2023/05/30 08:58:43;;;;;;;14.48;5.63;;;17.50;99.90;;;;;;5112842;28;20238;-53
2023/05/30 09:01:10;;;;;;;11.32;5.05;;;;;;;;;;5112318;28;20224;-53
2023/05/30 09:03:36;;;;;;;13.88;5.32;;;;;;;;;;5112891;28;20654;-53
2023/05/30 09:06:02;;;;;;;11.20;5.65;;;17.40;99.90;;;;;;5112105;28;20161;-53
2023/05/30 09:08:29;;;;;;;14.73;5.28;;;17.60;99.90;;;;;;5112317;28;20208;-53
2023/05/30 09:10:56;;;;;;;13.75;5.47;;;17.50;99.90;;;;;;5112319;28;20165;-53
2023/05/30 09:13:22;;;;;;;10.20;5.10;;;17.80;99.90;;;;;;5112141;28;20687;-55
2023/05/30 09:15:48;;;;;;;10.23;5.15;;;;;;;;;;5112263;28;20172;-54
2023/05/30 09:18:14;;;;;;;11.70;5.65;;;17.90;99.90;;;;;;5093966;28;20169;-54
2023/05/30 09:20:40;;;;;;;9.75;4.75;;;;;;;;;;5112008;28;20164;-54
2023/05/30 09:23:06;;;;;;;9.63;5.50;;;18.00;99.90;;;;;;5112301;28;20509;-53
2023/05/30 09:25:45;;;;;;;9.57;4.72;;;17.50;99.90;;;;;;5111919;28;20233;-53
2023/05/30 09:28:12;;;;;;;12.65;4.80;;;17.70;99.90;;;;;;5111831;28;20196;-53
2023/05/30 09:30:56;;;;;;;10.88;5.22;;;17.50;99.90;;;;;;5094290;28;20537;-54
2023/05/30 09:33:22;;;;;;;10.10;5.63;;;18.00;99.30;;;;;;5111725;28;20173;-55
2023/05/30 09:35:54;;;;;;;10.60;5.50;;;;;;;;;;5111676;28;20243;-53
2023/05/30 09:38:24;;;;;;;10.88;5.35;;;18.20;99.90;;;;;;5111730;28;20161;-54
2023/05/30 09:40:56;;;;;;;12.45;5.40;;;18.30;99.90;;;;;;5111571;28;20161;-53
2023/05/30 09:43:34;;;;;;;13.77;5.80;;;18.30;99.90;;;;;;5111590;28;20173;-53
2023/05/30 09:46:01;;;;;;;9.35;3.85;;;18.20;99.90;;;;;;5111402;28;20176;-53
2023/05/30 09:48:27;;;;;;;13.27;5.72;;;;;;;;;;5111633;28;20632;-53
2023/05/30 09:50:53;;;;;;;12.32;4.68;;;18.60;99.90;;;;;;5111436;28;20700;-54
2023/05/30 09:53:19;;;;;;;13.70;5.38;;;;;;;;;;5111165;28;20214;-56
2023/05/30 09:55:45;;;;;;;10.73;5.20;;;;;;;;;;5111512;28;20259;-54
2023/05/30 09:58:22;;;;;;;13.35;6.05;;;18.80;98.90;;;;;;5111598;28;20244;-55
2023/05/30 10:00:52;;;;;;;13.65;5.60;;;18.70;97.60;;;;;;5111630;28;20239;-54
2023/05/30 10:03:19;;;;;;;11.60;5.53;;;18.90;96.00;;;;;;5111481;28;20507;-54
2023/05/30 10:05:45;;;;;;;9.40;4.95;;;18.70;94.90;;;;;;5111116;28;20159;-54
2023/05/30 10:08:11;;;;;;;8.93;4.70;;;;;;;;;;5092721;28;20307;-55
2023/05/30 10:10:39;;;;;;;8.27;5.10;;;19.60;96.00;;;;;;5111525;28;20192;-54
2023/05/30 10:13:05;;;;;;;12.98;4.70;;;;;;;;;;5111591;28;20229;-53
2023/05/30 10:15:31;;;;;;;10.85;4.68;;;19.10;96.30;;;;;;5111087;28;20173;-53
2023/05/30 10:18:13;;;;;;;15.30;5.20;;;19.30;98.10;;;;;;5111011;28;20222;-54
2023/05/30 10:20:45;;;;;;;10.07;5.05;;;19.50;98.70;;;;;;5110956;28;20247;-54
2023/05/30 10:23:13;;;;;;;12.43;4.78;;;19.40;96.10;;;;;;5111144;28;20169;-55
2023/05/30 10:25:45;;;;;;;9.52;4.78;;;19.50;95.80;;;;;;5110861;28;20512;-53
2023/05/30 10:28:18;;;;;;;18.77;12.18;;;19.70;97.10;;;;;;5110591;28;20214;-55
2023/05/30 10:30:44;;;;;;;8.95;4.60;;;;;;;;;;5110683;28;20628;-54
2023/05/30 10:33:11;;;;;;;8.80;4.00;;;19.50;93.10;;;;;;5109981;28;20175;-54
2023/05/30 10:35:38;;;;;;;9.82;4.18;;;;;;;;;;5111218;28;20161;-53
2023/05/30 10:38:11;;;;;;;11.07;3.92;;;20.10;94.10;;;;;;5111137;28;20457;-53
2023/05/30 10:41:06;;;;;;;12.82;4.70;;;20.00;93.90;;;;;;5111040;28;20161;-53
2023/05/30 10:44:17;;;;;;;8.32;4.78;;;19.60;95.00;;;;;;5110556;28;20160;-53
2023/05/30 10:46:59;;;;;;;8.80;4.13;;;20.00;93.10;;;;;;5110382;28;20172;-53
2023/05/30 10:49:28;;;;;;;12.77;6.53;;;20.10;93.30;;;;;;5110218;28;20743;-53
2023/05/30 10:52:03;;;;;;;9.95;4.97;;;20.10;91.30;;;;;;5110331;28;20165;-53
2023/05/30 10:54:31;;;;;;;8.07;5.10;;;20.30;90.20;;;;;;5110323;28;20259;-54
2023/05/30 10:56:58;;;;;;;10.95;4.90;;;;;;;;;;5110215;28;20173;-54
2023/05/30 10:59:24;;;;;;;6.93;5.15;;;20.30;91.50;;;;;;5110394;28;20614;-54
2023/05/30 11:02:04;;;;;;;11.70;5.68;;;;;;;;;;5110606;28;20194;-54
2023/05/30 11:04:35;;;;;;;17.40;5.45;;;20.10;91.50;;;;;;5110418;28;20172;-54
2023/05/30 11:07:04;;;;;;;11.73;5.47;;;20.40;91.20;;;;;;5109806;28;20772;-56
2023/05/30 11:09:30;;;;;;;9.88;4.97;;;20.80;90.70;;;;;;5092213;28;20577;-54
2023/05/30 11:11:57;;;;;;;9.52;4.30;;;20.60;90.50;;;;;;5110020;28;20165;-54
2023/05/30 11:14:25;;;;;;;9.93;4.68;;;;;;;;;;5110283;28;20233;-56
2023/05/30 11:17:06;;;;;;;13.45;4.47;;;20.70;90.30;;;;;;5091506;28;20203;-54
2023/05/30 11:19:40;;;;;;;8.45;4.10;;;20.50;91.00;;;;;;5109708;28;20157;-56
2023/05/30 11:22:16;;;;;;;10.30;3.75;;;20.80;90.30;;;;;;5109991;28;20187;-53
2023/05/30 11:24:42;;;;;;;11.82;4.75;;;20.40;87.50;;;;;;5109986;28;20160;-55
2023/05/30 11:27:15;;;;;;;10.15;3.63;;;20.50;85.50;;;;;;5110019;28;20536;-53
2023/05/30 11:29:43;;;;;;;8.35;4.00;;;20.40;83.80;;;;;;5109935;28;20507;-53
2023/05/30 11:32:10;;;;;;;6.25;3.17;;;20.80;85.00;;;;;;5110075;28;20222;-54
2023/05/30 11:34:36;;;;;;;6.47;3.58;;;21.10;87.10;;;;;;5110403;28;20267;-54
2023/05/30 11:37:03;;;;;;;6.00;4.15;;;20.80;82.80;;;;;;5109874;28;20160;-55
2023/05/30 11:39:33;;;;;;;8.60;3.38;;;21.10;85.10;;;;;;5109869;28;20165;-55
2023/05/30 11:42:01;;;;;;;9.18;4.13;;;;;;;;;;5110136;28;20190;-54
2023/05/30 11:44:29;;;;;;;9.68;3.88;;;;;;;;;;5110910;28;20565;-53
2023/05/30 11:47:06;;;;;;;8.98;3.70;;;;;;;;;;5114199;28;20161;-53
2023/05/30 11:49:33;;;;;;;9.85;3.72;;;21.20;85.20;;;;;;5113767;28;20597;-53
2023/05/30 11:51:59;;;;;;;13.35;3.92;;;21.30;86.60;;;;;;5095923;28;20669;-54
2023/05/30 11:54:26;;;;;;;11.40;4.93;;;21.30;85.80;;;;;;5113953;28;20225;-53
2023/05/30 11:56:51;;;;;;;8.50;4.38;;;21.30;85.70;;;;;;5113704;28;20612;-53
2023/05/30 11:59:22;;;;;;;8.55;3.17;;;21.40;85.30;;;;;;5113678;28;20168;-53
2023/05/30 12:01:56;;;;;;;10.25;3.30;;;21.40;85.00;;;;;;5113718;28;20177;-54
2023/05/30 12:04:33;;;;;;;6.88;3.90;;;21.60;80.70;;;;;;5113830;28;20172;-53
2023/05/30 12:07:06;;;;;;;7.18;3.45;;;21.40;78.60;;;;;;5113311;28;20242;-53
2023/05/30 12:09:39;;;;;;;8.63;3.47;;;21.40;80.90;;;;;;5113457;28;20648;-53
2023/05/30 12:12:08;;;;;;;8.20;3.42;;;20.80;76.70;;;;;;5114074;28;20177;-53
2023/05/30 12:14:38;;;;;;;5.75;3.28;;;20.90;80.70;;;;;;5113908;28;20264;-54
2023/05/30 12:17:14;;;;;;;9.55;3.70;;;21.60;82.60;;;;;;5113684;28;20207;-53
2023/05/30 12:19:43;;;;;;;10.35;4.00;;;21.70;80.20;;;;;;5113283;28;20209;-54
2023/05/30 12:22:09;;;;;;;5.53;3.08;;;21.60;75.60;;;;;;5113107;28;20199;-54
2023/05/30 12:24:36;;;;;;;6.25;3.58;;;21.60;78.30;;;;;;5113607;28;20165;-53
2023/05/30 12:27:03;;;;;;;9.40;3.97;;;;;;;;;;5113077;28;20161;-54
2023/05/30 12:29:34;;;;;;;8.75;3.85;;;21.40;78.20;;;;;;5113337;28;20180;-55
2023/05/30 12:32:02;;;;;;;7.93;3.90;;;21.50;80.20;;;;;;5113046;28;20157;-53
2023/05/30 12:34:46;;;;;;;9.70;3.70;;;21.50;78.20;;;;;;5112951;28;20169;-53
2023/05/30 12:37:18;;;;;;;7.00;3.88;;;21.80;78.80;;;;;;5112756;28;20168;-53
2023/05/30 12:39:50;;;;;;;8.48;3.60;;;22.00;79.30;;;;;;5113019;28;20164;-53
2023/05/30 12:42:21;;;;;;;9.73;4.05;;;21.90;79.10;;;;;;5112899;28;20196;-53
2023/05/30 12:45:00;;;;;;;10.05;4.07;;;21.60;77.30;;;;;;5113226;28;20168;-53
2023/05/30 12:47:27;;;;;;;11.68;4.22;;;;;;;;;;5112636;28;20188;-53
2023/05/30 12:49:53;;;;;;;8.90;3.55;;;;;;;;;;5112631;28;20541;-53
2023/05/30 12:52:21;;;;;;;8.88;3.30;;;22.20;77.50;;;;;;5112609;28;20168;-53
2023/05/30 12:54:48;;;;;;;11.30;4.10;;;22.50;79.10;;;;;;5112863;28;20165;-53
2023/05/30 12:57:14;;;;;;;7.90;3.75;;;22.10;76.80;;;;;;5112153;28;20180;-53
2023/05/30 12:59:40;;;;;;;7.70;3.55;;;;;;;;;;5112518;28;20163;-53
2023/05/30 13:02:08;;;;;;;8.82;3.58;;;22.20;76.70;;;;;;5112975;28;20165;-53
2023/05/30 13:04:35;;;;;;;8.52;3.65;;;22.10;77.40;;;;;;5112929;28;20272;-53